Time;durP1;ratioP1;P1;durP2;ratioP2;P2;SDS_P1;SDS_P2;PMS_P1;PMS_P2;Temp;Humidity;BMP_temperature;BMP_pressure;BME280_temperature;BME280_humidity;BME280_pressure;Samples;Min_cycle;Max_cycle;Signal;HPM_P1;HPM_P2
2023/10/24 00:01:42;;;;;;;12.57;6.10;;;10.70;99.90;;;11.45;100.00;97093.13;5028249;28;20521;-81
2023/10/24 00:04:12;;;;;;;11.90;5.30;;;10.70;99.90;;;11.45;100.00;97093.91;5027064;28;20976;-81
2023/10/24 00:06:43;;;;;;;8.47;5.30;;;10.70;99.90;;;11.47;100.00;97086.66;5025105;28;20468;-81
2023/10/24 00:09:13;;;;;;;8.50;5.00;;;10.70;99.90;;;11.47;100.00;97089.25;5029864;28;20456;-81
2023/10/24 00:11:45;;;;;;;9.93;5.10;;;10.80;99.90;;;11.48;100.00;97088.25;5029263;28;20999;-81
2023/10/24 00:14:15;;;;;;;9.13;5.43;;;10.80;99.90;;;11.50;100.00;97083.59;5030578;28;20465;-81
2023/10/24 00:16:44;;;;;;;5.60;3.90;;;10.80;99.90;;;11.49;100.00;97071.50;5034709;28;20464;-81
2023/10/24 00:19:13;;;;;;;11.83;5.30;;;10.80;99.90;;;11.51;100.00;97087.00;5031337;28;20466;-80
2023/10/24 00:21:43;;;;;;;6.97;4.63;;;10.90;99.90;;;11.52;100.00;97088.63;5030881;28;20457;-81
2023/10/24 00:24:14;;;;;;;9.80;5.73;;;10.80;99.90;;;11.56;100.00;97089.78;5028739;28;20588;-81
2023/10/24 00:26:45;;;;;;;9.67;4.90;;;10.90;99.90;;;11.55;100.00;97083.75;5031347;28;20462;-81
2023/10/24 00:29:14;;;;;;;6.03;4.33;;;10.90;99.90;;;11.59;100.00;97090.13;5029703;28;20822;-81
2023/10/24 00:31:44;;;;;;;11.63;4.60;;;10.90;99.90;;;11.63;100.00;97081.88;5028849;28;20466;-81
2023/10/24 00:34:16;;;;;;;7.33;4.30;;;10.90;99.90;;;11.63;100.00;97081.88;5029347;28;20506;-81
2023/10/24 00:36:47;;;;;;;9.83;4.20;;;10.90;99.90;;;11.64;100.00;97092.13;5029894;28;20500;-81
2023/10/24 00:39:17;;;;;;;7.50;4.60;;;10.90;99.90;;;11.66;100.00;97105.00;5031989;28;20458;-81
2023/10/24 00:41:49;;;;;;;6.97;4.60;;;10.90;99.90;;;11.66;100.00;97097.16;5030661;28;20457;-81
2023/10/24 00:44:19;;;;;;;6.13;4.40;;;10.90;99.90;;;11.69;100.00;97088.84;5031079;28;21125;-80
2023/10/24 00:46:50;;;;;;;6.33;4.50;;;11.00;99.90;;;11.70;100.00;97066.91;5030817;28;20461;-80
2023/10/24 00:49:20;;;;;;;6.03;3.87;;;11.10;99.90;;;11.75;100.00;97064.44;5031458;28;20970;-81
2023/10/24 00:51:51;;;;;;;5.73;3.03;;;11.20;99.90;;;11.79;100.00;97078.69;5028408;28;20576;-81
2023/10/24 00:54:22;;;;;;;5.70;2.80;;;11.20;99.90;;;11.84;100.00;97081.44;5030199;28;20461;-80
2023/10/24 00:56:55;;;;;;;3.13;2.33;;;11.20;99.90;;;11.88;100.00;97095.72;5028845;28;20537;-81
2023/10/24 00:59:28;;;;;;;3.30;2.00;;;11.30;99.90;;;11.90;100.00;97091.06;5030816;28;20834;-81
2023/10/24 01:01:59;;;;;;;3.37;2.40;;;11.40;99.90;;;11.94;100.00;97100.88;5031360;28;20472;-81
2023/10/24 01:04:29;;;;;;;2.63;2.00;;;11.40;99.90;;;11.96;100.00;97091.00;5031111;28;21207;-81
2023/10/24 01:07:00;;;;;;;3.20;2.03;;;11.40;99.90;;;11.98;100.00;97094.19;5032886;28;20464;-81
2023/10/24 01:09:32;;;;;;;2.70;1.87;;;11.50;99.90;;;12.02;100.00;97086.69;5031710;28;20924;-81
2023/10/24 01:12:04;;;;;;;3.50;2.33;;;11.40;99.90;;;12.03;100.00;97070.75;5030336;28;20512;-81
2023/10/24 01:14:34;;;;;;;2.53;1.93;;;11.50;99.90;;;12.04;100.00;97082.81;5029281;28;20493;-80
2023/10/24 01:17:11;;;;;;;2.10;1.70;;;11.50;99.90;;;12.04;100.00;97077.59;5030028;28;20466;-80
2023/10/24 01:19:40;;;;;;;2.60;1.47;;;11.50;99.90;;;12.06;100.00;97070.31;5029862;28;21075;-81
2023/10/24 01:22:11;;;;;;;2.17;1.40;;;11.50;99.90;;;12.07;100.00;97066.69;5029271;28;20465;-81
2023/10/24 01:24:41;;;;;;;2.30;1.47;;;11.50;99.90;;;12.08;100.00;97068.28;5029109;28;20547;-80
2023/10/24 01:27:14;;;;;;;2.30;1.43;;;11.50;99.90;;;12.07;100.00;97074.56;5027826;28;20553;-81
2023/10/24 01:29:44;;;;;;;2.03;1.47;;;11.50;99.90;;;12.10;100.00;97068.06;5028774;28;20462;-80
2023/10/24 01:32:15;;;;;;;2.80;1.40;;;11.50;99.90;;;12.09;100.00;97075.13;5028320;28;21481;-80
2023/10/24 01:34:45;;;;;;;2.70;1.20;;;11.60;99.90;;;12.11;100.00;97067.03;5027234;28;20556;-80
2023/10/24 01:37:16;;;;;;;1.20;1.10;;;11.60;99.90;;;12.10;100.00;97055.75;5028265;28;20450;-82
2023/10/24 01:39:46;;;;;;;2.30;1.10;;;11.60;99.90;;;12.09;100.00;97054.16;5032412;28;20461;-81
2023/10/24 01:42:17;;;;;;;7.13;1.40;;;11.60;99.90;;;12.10;100.00;97049.72;5029262;28;21064;-81
2023/10/24 01:44:47;;;;;;;3.33;1.23;;;11.50;99.90;;;12.08;100.00;97039.44;5029818;28;20497;-81
2023/10/24 01:47:18;;;;;;;1.20;1.10;;;11.50;99.90;;;12.08;100.00;97049.13;5029493;28;20470;-81
2023/10/24 01:49:47;;;;;;;1.27;1.07;;;11.50;99.90;;;12.05;100.00;97045.13;5032481;28;20957;-81
2023/10/24 01:52:20;;;;;;;2.40;1.33;;;11.50;99.90;;;12.04;100.00;97034.88;5031525;28;20474;-81
2023/10/24 01:54:50;;;;;;;6.30;1.33;;;11.50;99.90;;;12.05;100.00;97032.03;5029420;28;20473;-80
2023/10/24 01:57:21;;;;;;;1.93;1.10;;;11.50;99.90;;;12.06;100.00;97019.72;5031165;28;20532;-80
2023/10/24 01:59:52;;;;;;;1.33;1.17;;;11.50;99.90;;;12.06;100.00;97023.16;5030903;28;20454;-80
2023/10/24 02:02:22;;;;;;;2.30;1.30;;;11.50;99.90;;;12.06;100.00;97031.00;5028836;28;20466;-81
2023/10/24 02:04:53;;;;;;;2.33;1.07;;;11.50;99.90;;;12.05;100.00;97029.41;5029925;28;20497;-81
2023/10/24 02:07:28;;;;;;;1.20;1.00;;;11.50;99.90;;;12.04;100.00;97024.41;5026615;28;20679;-81
2023/10/24 02:09:58;;;;;;;2.60;1.00;;;11.50;99.90;;;12.04;100.00;97037.50;5029865;28;21094;-80
2023/10/24 02:12:28;;;;;;;2.17;1.17;;;11.40;99.90;;;12.05;100.00;97049.56;5028355;28;20547;-81
2023/10/24 02:14:59;;;;;;;1.47;1.30;;;11.50;99.90;;;12.04;100.00;97051.38;5028084;28;20454;-81
2023/10/24 02:17:28;;;;;;;2.17;1.20;;;11.40;99.90;;;12.02;100.00;97061.28;5027612;28;20461;-80
2023/10/24 02:19:58;;;;;;;1.60;1.30;;;11.50;99.90;;;12.03;100.00;97064.72;5028559;28;20549;-81
2023/10/24 02:22:31;;;;;;;2.27;1.30;;;11.40;99.90;;;12.02;100.00;97057.88;5025994;28;21106;-80
2023/10/24 02:25:08;;;;;;;3.37;1.00;;;11.40;99.90;;;12.01;100.00;97053.63;5027734;28;20996;-81
2023/10/24 02:27:38;;;;;;;1.10;1.00;;;11.40;99.90;;;12.01;100.00;97061.50;5029713;28;20461;-81
2023/10/24 02:30:09;;;;;;;2.10;1.17;;;11.40;99.90;;;12.01;100.00;97051.03;5028076;28;20469;-80
2023/10/24 02:32:39;;;;;;;5.23;1.03;;;11.40;99.90;;;11.98;100.00;97052.28;5029870;28;20941;-80
2023/10/24 02:35:09;;;;;;;1.00;0.90;;;11.40;99.90;;;11.97;100.00;97060.38;5030295;28;21376;-81
2023/10/24 02:37:40;;;;;;;1.07;0.97;;;11.40;99.90;;;11.95;100.00;97051.91;5028910;28;20457;-80
2023/10/24 02:40:13;;;;;;;1.43;0.97;;;11.30;99.90;;;11.95;100.00;97046.66;5027903;28;20987;-81
2023/10/24 02:42:43;;;;;;;1.50;1.20;;;11.30;99.90;;;11.92;100.00;97041.88;5028316;28;20961;-80
2023/10/24 02:45:11;;;;;;;2.40;1.33;;;11.30;99.90;;;11.92;100.00;97049.72;5027822;28;20910;-81
2023/10/24 02:47:42;;;;;;;2.80;1.40;;;11.20;99.90;;;11.85;100.00;97059.47;5028165;28;20508;-80
2023/10/24 02:50:12;;;;;;;1.13;1.03;;;11.30;99.90;;;11.85;100.00;97069.97;5028001;28;20467;-80
2023/10/24 02:52:45;;;;;;;6.83;1.03;;;11.30;99.90;;;11.81;100.00;97072.22;5026096;28;20554;-81
2023/10/24 02:55:16;;;;;;;1.93;1.33;;;11.20;99.90;;;11.79;100.00;97063.00;5028834;28;20486;-80
2023/10/24 02:57:45;;;;;;;1.73;1.30;;;11.20;99.90;;;11.80;100.00;97061.97;5031355;28;20458;-80
2023/10/24 03:00:18;;;;;;;1.20;1.00;;;11.20;99.90;;;11.79;100.00;97052.50;5029625;28;20469;-79
2023/10/24 03:02:49;;;;;;;2.70;1.63;;;11.10;99.90;;;11.77;100.00;97057.16;5026097;28;20490;-80
2023/10/24 03:05:18;;;;;;;2.50;1.33;;;11.10;99.90;;;11.80;100.00;97073.22;5028167;28;20515;-80
2023/10/24 03:07:49;;;;;;;6.53;1.07;;;11.10;99.90;;;11.78;100.00;97077.09;5028149;28;20484;-81
2023/10/24 03:10:20;;;;;;;2.87;1.37;;;11.00;99.90;;;11.77;100.00;97073.66;5025660;28;20454;-77
2023/10/24 03:12:50;;;;;;;6.20;2.23;;;11.00;99.90;;;11.72;100.00;97073.53;5028530;28;20547;-81
2023/10/24 03:15:21;;;;;;;2.03;1.20;;;11.00;99.90;;;11.72;100.00;97057.03;5027593;28;20553;-81
2023/10/24 03:17:51;;;;;;;3.10;1.13;;;10.90;99.90;;;11.70;100.00;97053.81;5028578;28;20537;-81
2023/10/24 03:20:21;;;;;;;1.30;1.10;;;10.90;99.90;;;11.69;100.00;97053.00;5028473;28;20458;-81
2023/10/24 03:22:53;;;;;;;5.00;1.23;;;11.00;99.90;;;11.64;100.00;97063.31;5020987;28;20853;-81
2023/10/24 03:25:25;;;;;;;2.50;1.20;;;10.90;99.90;;;11.60;100.00;97070.81;5023751;28;20492;-78
2023/10/24 03:27:54;;;;;;;1.30;1.20;;;10.90;99.90;;;11.56;100.00;97069.63;5022685;28;20969;-81
2023/10/24 03:30:25;;;;;;;13.77;2.10;;;10.80;99.90;;;11.56;100.00;97067.00;5024658;28;20462;-82
2023/10/24 03:32:56;;;;;;;1.87;1.30;;;10.80;99.90;;;11.56;100.00;97067.00;5025548;28;20562;-81
2023/10/24 03:35:26;;;;;;;1.10;1.00;;;10.80;99.90;;;11.53;100.00;97064.81;5027243;28;20467;-81
2023/10/24 03:37:57;;;;;;;10.70;1.80;;;10.70;99.90;;;11.55;100.00;97075.91;5027085;28;20516;-81
2023/10/24 03:40:27;;;;;;;2.23;1.43;;;10.70;99.90;;;11.52;100.00;97059.81;5027200;28;21039;-81
2023/10/24 03:42:56;;;;;;;5.83;1.23;;;10.70;99.90;;;11.48;100.00;97062.06;5026740;28;20457;-81
2023/10/24 03:45:27;;;;;;;2.00;1.20;;;10.70;99.90;;;11.50;100.00;97060.03;5029870;28;20529;-81
2023/10/24 03:47:56;;;;;;;3.10;1.43;;;10.60;99.90;;;11.48;100.00;97061.28;5030093;28;20458;-80
2023/10/24 03:50:27;;;;;;;1.50;1.20;;;10.60;99.90;;;11.46;100.00;97064.09;5029835;28;20990;-82
2023/10/24 03:52:59;;;;;;;2.10;1.27;;;10.60;99.90;;;11.43;100.00;97059.28;5029085;28;20465;-82
2023/10/24 03:55:29;;;;;;;2.70;1.23;;;10.60;99.90;;;11.39;100.00;97052.88;5032307;28;20461;-81
2023/10/24 03:58:00;;;;;;;2.00;1.10;;;10.60;99.90;;;11.37;100.00;97049.69;5031289;28;20540;-81
2023/10/24 04:00:31;;;;;;;1.80;1.03;;;10.50;99.90;;;11.34;100.00;97047.50;5031701;28;20466;-81
2023/10/24 04:03:01;;;;;;;4.80;1.40;;;10.50;99.90;;;11.34;100.00;97055.38;5031504;28;20984;-81
2023/10/24 04:05:34;;;;;;;7.10;1.63;;;10.50;99.90;;;11.31;100.00;97047.16;5031790;28;20494;-81
2023/10/24 04:08:05;;;;;;;4.33;1.30;;;10.50;99.90;;;11.31;100.00;97050.56;5029689;28;20545;-81
2023/10/24 04:10:35;;;;;;;9.50;1.33;;;10.40;99.90;;;11.33;100.00;97052.94;5028966;28;20454;-82
2023/10/24 04:13:05;;;;;;;4.80;1.40;;;10.40;99.90;;;11.25;100.00;97055.84;5027482;28;21016;-79
2023/10/24 04:15:36;;;;;;;6.47;3.67;;;10.50;99.90;;;11.24;100.00;97059.50;5026083;28;20465;-81
2023/10/24 04:18:05;;;;;;;2.47;1.70;;;10.40;99.90;;;11.25;100.00;97045.38;5027707;28;20469;-82
2023/10/24 04:20:35;;;;;;;6.77;1.40;;;10.40;99.90;;;11.25;100.00;97045.38;5030857;28;21169;-82
2023/10/24 04:23:14;;;;;;;4.43;1.63;;;10.40;99.90;;;11.19;100.00;97052.28;5027952;28;20540;-81
2023/10/24 04:25:43;;;;;;;72.73;38.87;;;10.40;99.90;;;11.19;100.00;97047.03;5028571;28;20512;-79
2023/10/24 04:28:14;;;;;;;2.47;1.60;;;10.40;99.90;;;11.18;100.00;97050.66;5028080;28;20466;-80
2023/10/24 04:30:45;;;;;;;3.90;1.53;;;10.40;99.90;;;11.20;100.00;97042.63;5025659;28;20462;-83
2023/10/24 04:33:15;;;;;;;9.33;1.80;;;10.30;99.90;;;11.14;100.00;97043.47;5030318;28;20462;-82
2023/10/24 04:35:47;;;;;;;1.77;1.40;;;10.40;99.90;;;11.14;100.00;97049.53;5031804;28;20466;-82
2023/10/24 04:38:19;;;;;;;5.27;1.20;;;10.30;99.90;;;11.15;100.00;97048.47;5029284;28;20481;-82
2023/10/24 04:40:52;;;;;;;1.97;1.30;;;10.30;99.90;;;11.09;100.00;97047.53;5028108;28;21125;-80
2023/10/24 04:43:21;;;;;;;2.17;1.50;;;10.30;99.90;;;11.06;100.00;97050.59;5033378;28;20469;-80
2023/10/24 04:45:53;;;;;;;1.20;1.03;;;10.30;99.90;;;11.04;100.00;97057.03;5033223;28;20489;-80
2023/10/24 04:48:23;;;;;;;1.43;1.30;;;10.20;99.90;;;11.01;100.00;97053.03;5033187;28;20563;-81
2023/10/24 04:50:54;;;;;;;3.10;1.80;;;10.20;99.90;;;11.00;100.00;97048.03;5032571;28;20497;-80
2023/10/24 04:53:25;;;;;;;1.80;1.53;;;10.20;99.90;;;11.01;100.00;97039.94;5030986;28;20469;-80
2023/10/24 04:55:55;;;;;;;1.93;1.33;;;10.20;99.90;;;10.99;100.00;97042.00;5032815;28;20465;-80
2023/10/24 04:58:26;;;;;;;1.60;1.10;;;10.10;99.90;;;10.99;100.00;97026.31;5032448;28;20551;-80
2023/10/24 05:00:57;;;;;;;3.37;1.23;;;10.10;99.90;;;11.01;100.00;97020.84;5033898;28;20533;-81
2023/10/24 05:03:27;;;;;;;6.87;1.40;;;10.10;99.90;;;10.96;100.00;97012.84;5032804;28;20915;-81
2023/10/24 05:05:59;;;;;;;1.60;1.40;;;10.10;99.90;;;10.93;100.00;97021.13;5032784;28;20861;-81
2023/10/24 05:08:31;;;;;;;4.13;1.70;;;10.10;99.90;;;10.92;100.00;97017.72;5029987;28;21154;-80
2023/10/24 05:11:01;;;;;;;6.50;3.10;;;10.00;99.90;;;10.91;100.00;97018.72;5030058;28;20518;-81
2023/10/24 05:13:31;;;;;;;5.80;1.57;;;10.00;99.90;;;10.92;100.00;97011.66;5029989;28;20493;-80
2023/10/24 05:16:01;;;;;;;7.60;1.53;;;10.10;99.90;;;10.93;100.00;97013.28;5029355;28;20458;-80
2023/10/24 05:18:32;;;;;;;6.50;1.70;;;10.10;99.90;;;10.94;100.00;97014.84;5028687;28;20457;-80
2023/10/24 05:21:01;;;;;;;1.33;1.23;;;10.10;99.90;;;10.95;100.00;97021.69;5030475;28;20480;-80
2023/10/24 05:23:32;;;;;;;8.50;1.50;;;10.10;99.90;;;10.96;100.00;97010.22;5031350;28;20828;-81
2023/10/24 05:26:02;;;;;;;4.20;1.27;;;10.10;99.90;;;10.94;100.00;97015.66;5032516;28;20943;-81
2023/10/24 05:28:34;;;;;;;2.43;1.67;;;10.00;99.90;;;10.91;100.00;97008.25;5028689;28;20487;-81
2023/10/24 05:31:08;;;;;;;3.33;1.60;;;10.10;99.90;;;10.91;100.00;97010.06;5029727;28;20470;-80
2023/10/24 05:33:38;;;;;;;2.80;1.50;;;10.00;99.90;;;10.87;100.00;97007.06;5028213;28;20556;-80
2023/10/24 05:36:08;;;;;;;2.87;1.60;;;10.00;99.90;;;10.88;100.00;97000.84;5030317;28;20544;-81
2023/10/24 05:38:41;;;;;;;2.73;1.57;;;10.00;99.90;;;10.89;100.00;97004.25;5030528;28;20552;-80
2023/10/24 05:41:11;;;;;;;7.10;2.00;;;10.00;99.90;;;10.88;100.00;97019.16;5030033;28;20469;-80
2023/10/24 05:43:41;;;;;;;2.63;1.50;;;10.00;99.90;;;10.89;100.00;97022.56;5028287;28;20466;-81
2023/10/24 05:46:11;;;;;;;2.23;1.60;;;10.00;99.90;;;10.85;100.00;97022.19;5031785;28;20500;-81
2023/10/24 05:48:40;;;;;;;3.57;1.80;;;9.90;99.90;;;10.86;100.00;97015.16;5031272;28;20457;-80
2023/10/24 05:51:10;;;;;;;2.50;1.63;;;9.90;99.90;;;10.87;100.00;97011.50;5029248;28;20855;-81
2023/10/24 05:53:42;;;;;;;4.57;1.80;;;9.90;99.90;;;10.86;100.00;97020.38;5029914;28;20454;-80
2023/10/24 05:56:13;;;;;;;9.63;1.70;;;9.90;99.90;;;10.87;100.00;97011.50;5033005;28;21436;-80
2023/10/24 05:58:42;;;;;;;1.90;1.67;;;9.90;99.90;;;10.87;100.00;97006.28;5030014;28;20980;-81
2023/10/24 06:01:12;;;;;;;5.73;1.60;;;9.90;99.90;;;10.83;100.00;97013.75;5031014;28;20473;-80
2023/10/24 06:03:41;;;;;;;2.20;1.93;;;9.90;99.90;;;10.81;100.00;97007.13;5029879;28;20466;-81
2023/10/24 06:06:11;;;;;;;3.53;1.90;;;10.00;99.90;;;10.82;100.00;97000.91;5028200;28;20581;-80
2023/10/24 06:08:44;;;;;;;3.60;1.80;;;10.00;99.90;;;10.82;100.00;96998.28;5030549;28;20462;-81
2023/10/24 06:11:15;;;;;;;2.37;1.60;;;10.00;99.90;;;10.84;100.00;97004.88;5028825;28;20590;-81
2023/10/24 06:13:45;;;;;;;1.63;1.50;;;9.90;99.90;;;10.83;100.00;96992.81;5029374;28;20465;-81
2023/10/24 06:16:17;;;;;;;1.70;1.53;;;9.90;99.90;;;10.85;100.00;97001.28;5028472;28;20462;-81
2023/10/24 06:18:49;;;;;;;2.93;2.40;;;10.00;99.90;;;10.86;100.00;97002.06;5029070;28;20545;-81
2023/10/24 06:21:19;;;;;;;2.93;2.07;;;9.90;99.90;;;10.86;100.00;96999.47;5032135;28;20829;-80
2023/10/24 06:23:51;;;;;;;5.97;2.47;;;9.90;99.90;;;10.82;100.00;96998.28;5032074;28;20534;-80
2023/10/24 06:26:21;;;;;;;7.00;2.33;;;10.00;99.90;;;10.84;100.00;97001.47;5029643;28;21087;-81
2023/10/24 06:28:52;;;;;;;3.60;2.13;;;10.00;99.90;;;10.86;100.00;96997.66;5030982;28;20516;-81
2023/10/24 06:31:23;;;;;;;7.60;1.80;;;10.00;99.90;;;10.86;100.00;97000.25;5029651;28;20470;-81
2023/10/24 06:33:53;;;;;;;6.10;1.97;;;10.00;99.90;;;10.85;100.00;96998.66;5029966;28;20466;-81
2023/10/24 06:36:22;;;;;;;2.13;1.93;;;9.90;99.90;;;10.80;100.00;97010.75;5029869;28;20469;-80
2023/10/24 06:38:53;;;;;;;6.80;2.20;;;9.90;99.90;;;10.77;100.00;97012.00;5028338;28;20480;-82
2023/10/24 06:41:23;;;;;;;1.80;1.70;;;9.90;99.90;;;10.80;100.00;97018.59;5030422;28;20872;-80
2023/10/24 06:43:54;;;;;;;6.10;2.43;;;9.90;99.90;;;10.80;100.00;97022.00;5028053;28;20462;-80
2023/10/24 06:46:25;;;;;;;2.63;2.13;;;9.90;99.90;;;10.77;100.00;97024.25;5027955;28;20485;-80
2023/10/24 06:48:56;;;;;;;3.90;2.13;;;9.90;99.90;;;10.78;100.00;97018.81;5030098;28;20554;-80
2023/10/24 06:51:26;;;;;;;3.37;1.83;;;9.90;99.90;;;10.81;100.00;97020.22;5029456;28;20473;-80
2023/10/24 06:53:58;;;;;;;2.60;1.93;;;9.90;99.90;;;10.80;100.00;97018.59;5028220;28;20457;-80
2023/10/24 06:56:27;;;;;;;17.33;1.83;;;9.80;99.90;;;10.79;100.00;97009.16;5027542;28;20464;-80
2023/10/24 06:58:57;;;;;;;13.97;2.43;;;9.80;99.90;;;10.81;100.00;97010.56;5027956;28;20532;-80
2023/10/24 07:01:27;;;;;;;1.93;1.80;;;9.90;99.90;;;10.79;100.00;97023.06;5030327;28;20458;-80
2023/10/24 07:04:02;;;;;;;4.77;2.17;;;9.90;99.90;;;10.78;100.00;97028.47;5028698;28;20838;-79
2023/10/24 07:06:32;;;;;;;2.17;1.80;;;9.90;99.90;;;10.80;100.00;97036.91;5028208;28;20525;-80
2023/10/24 07:09:04;;;;;;;1.93;1.80;;;9.90;99.90;;;10.81;100.00;97038.50;5027899;28;20504;-80
2023/10/24 07:11:34;;;;;;;5.37;2.03;;;9.90;99.90;;;10.82;100.00;97047.97;5027647;28;20466;-80
2023/10/24 07:14:03;;;;;;;2.27;1.90;;;9.90;99.90;;;10.85;100.00;97052.78;5029488;28;20454;-80
2023/10/24 07:16:34;;;;;;;3.40;2.30;;;10.00;99.90;;;10.88;100.00;97052.34;5032109;28;20492;-80
2023/10/24 07:19:04;;;;;;;7.23;2.17;;;10.00;99.90;;;10.92;100.00;97054.31;5026679;28;20462;-80
2023/10/24 07:21:34;;;;;;;3.27;2.00;;;10.10;99.90;;;10.96;100.00;97058.13;5030844;28;20485;-80
2023/10/24 07:24:10;;;;;;;2.00;1.90;;;10.10;99.90;;;10.99;100.00;97056.88;5032658;28;20492;-80
2023/10/24 07:26:40;;;;;;;6.23;2.50;;;10.20;99.90;;;11.05;100.00;97056.03;5030779;28;20477;-80
2023/10/24 07:29:10;;;;;;;1.90;1.80;;;10.20;99.90;;;11.03;100.00;97060.69;5029090;28;20521;-80
2023/10/24 07:31:40;;;;;;;5.80;2.07;;;10.20;99.90;;;11.05;100.00;97056.03;5030896;28;20473;-80
2023/10/24 07:34:09;;;;;;;4.70;2.43;;;10.20;99.90;;;11.07;100.00;97054.00;5031621;28;20477;-80
2023/10/24 07:36:40;;;;;;;3.63;2.07;;;10.20;99.90;;;11.09;100.00;97057.19;5031450;28;20828;-80
2023/10/24 07:39:10;;;;;;;3.10;2.27;;;10.20;99.90;;;11.10;100.00;97054.38;5030536;28;20466;-80
2023/10/24 07:41:40;;;;;;;4.87;2.47;;;10.20;99.90;;;11.10;100.00;97043.09;5030241;28;20957;-80
2023/10/24 07:44:11;;;;;;;8.13;2.73;;;10.20;99.90;;;11.10;100.00;97049.16;5032231;28;20497;-80
2023/10/24 07:46:42;;;;;;;3.53;2.07;;;10.20;99.90;;;11.14;100.00;97052.13;5030457;28;20496;-80
2023/10/24 07:49:11;;;;;;;6.00;2.10;;;10.20;99.90;;;11.16;100.00;97051.91;5031567;28;20465;-80
2023/10/24 07:51:40;;;;;;;2.50;2.23;;;10.30;99.90;;;11.16;100.00;97052.72;5029343;28;20547;-80
2023/10/24 07:54:10;;;;;;;2.30;2.10;;;10.30;99.90;;;11.21;100.00;97057.31;5028854;28;20504;-79
2023/10/24 07:56:39;;;;;;;2.57;2.13;;;10.30;99.90;;;11.20;100.00;97059.13;5027520;28;20493;-80
2023/10/24 07:59:09;;;;;;;5.77;2.40;;;10.30;99.90;;;11.22;100.00;97062.31;5027368;28;20469;-80
2023/10/24 08:01:40;;;;;;;7.40;2.63;;;10.40;99.90;;;11.25;100.00;97061.88;5030506;28;20871;-80
2023/10/24 08:04:11;;;;;;;2.60;2.20;;;10.40;99.90;;;11.28;100.00;97066.69;5028133;28;20520;-79
2023/10/24 08:06:41;;;;;;;6.07;3.10;;;10.40;99.90;;;11.30;100.00;97069.91;5025463;28;20585;-80
2023/10/24 08:09:12;;;;;;;5.30;2.53;;;10.40;99.90;;;11.31;100.00;97071.50;5029369;28;20478;-80
2023/10/24 08:11:43;;;;;;;4.40;2.63;;;10.50;99.90;;;11.33;100.00;97074.69;5028830;28;20522;-80
2023/10/24 08:14:13;;;;;;;7.90;2.40;;;10.50;99.90;;;11.36;100.00;97074.25;5031253;28;20473;-80
2023/10/24 08:16:44;;;;;;;3.40;2.30;;;10.50;99.90;;;11.38;100.00;97072.25;5029611;28;20470;-80
2023/10/24 08:19:14;;;;;;;9.43;2.90;;;10.50;99.90;;;11.41;100.00;97076.25;5028623;28;20972;-80
2023/10/24 08:21:44;;;;;;;6.40;2.40;;;10.60;99.90;;;11.41;100.00;97076.25;5031818;28;20589;-80
2023/10/24 08:24:15;;;;;;;4.77;2.63;;;10.60;99.90;;;11.42;100.00;97073.41;5029920;28;20466;-80
2023/10/24 08:26:45;;;;;;;7.70;4.03;;;10.60;99.90;;;11.46;100.00;97069.31;5032153;28;20488;-80
2023/10/24 08:29:36;;;;;;;4.63;3.63;;;10.60;99.90;;;11.46;100.00;97064.09;5028095;28;20445;-80
2023/10/24 08:32:08;;;;;;;2.83;2.00;;;10.60;99.90;;;11.49;100.00;97074.13;5031710;28;20577;-81
2023/10/24 08:34:45;;;;;;;4.30;2.80;;;10.60;99.90;;;11.49;100.00;97071.50;5032336;28;20516;-81
2023/10/24 08:37:15;;;;;;;2.50;2.30;;;10.70;99.90;;;11.52;100.00;97073.69;5029633;28;20543;-80
2023/10/24 08:39:48;;;;;;;12.93;2.43;;;10.60;99.90;;;11.54;100.00;97066.44;5031024;28;21160;-81
2023/10/24 08:42:19;;;;;;;5.10;3.00;;;10.70;99.90;;;11.56;100.00;97066.19;5031832;28;20818;-80
2023/10/24 08:44:51;;;;;;;6.13;2.53;;;10.70;99.90;;;11.58;100.00;97061.56;5032246;28;20468;-81
2023/10/24 08:47:23;;;;;;;5.03;3.03;;;10.70;99.90;;;11.60;100.00;97065.56;5029873;28;20495;-80
2023/10/24 08:49:54;;;;;;;8.00;3.20;;;10.80;99.90;;;11.62;100.00;97062.75;5030312;28;20981;-80
2023/10/24 08:52:24;;;;;;;14.93;4.27;;;10.80;99.90;;;11.65;100.00;97056.25;5033520;28;20469;-80
2023/10/24 08:55:04;;;;;;;12.70;3.80;;;10.80;99.90;;;11.66;100.00;97044.78;5032906;28;20488;-81
2023/10/24 08:57:40;;;;;;;15.53;3.60;;;10.90;99.90;;;11.68;100.00;97045.34;5030351;28;20453;-80
2023/10/24 09:00:14;;;;;;;3.80;3.27;;;10.90;99.90;;;11.68;100.00;97033.06;5030516;28;20475;-80
2023/10/24 09:02:45;;;;;;;5.20;3.07;;;10.90;99.90;;;11.70;100.00;97027.63;5031011;28;20977;-80
2023/10/24 09:05:17;;;;;;;6.90;2.80;;;10.80;99.90;;;11.71;100.00;97042.31;5034940;28;20458;-81
2023/10/24 09:07:48;;;;;;;8.00;2.90;;;10.90;99.90;;;11.73;100.00;97045.53;5032292;28;20502;-80
2023/10/24 09:10:21;;;;;;;4.90;2.50;;;10.90;99.90;;;11.75;100.00;97033.00;5029700;28;20454;-80
2023/10/24 09:12:54;;;;;;;5.50;3.40;;;10.90;99.90;;;11.76;100.00;97037.25;5030226;28;20549;-80
2023/10/24 09:15:24;;;;;;;11.30;3.23;;;10.90;99.90;;;11.79;100.00;97034.19;5031994;28;20457;-81
2023/10/24 09:17:55;;;;;;;6.03;3.20;;;11.00;99.90;;;11.81;100.00;97029.50;5030624;28;20867;-80
2023/10/24 09:20:31;;;;;;;4.53;2.70;;;11.00;99.90;;;11.83;100.00;97033.53;5032582;28;20457;-81
2023/10/24 09:23:06;;;;;;;2.40;2.20;;;11.00;99.90;;;11.86;100.00;97042.75;5033112;28;20482;-80
2023/10/24 09:25:36;;;;;;;3.07;2.03;;;11.00;99.90;;;11.86;100.00;97033.09;5030837;28;20844;-81
2023/10/24 09:28:17;;;;;;;5.53;2.60;;;11.00;99.90;;;11.88;100.00;97035.47;5031414;28;20941;-81
2023/10/24 09:30:47;;;;;;;3.53;2.60;;;11.00;99.90;;;11.90;100.00;97028.22;5032390;28;21059;-81
2023/10/24 09:33:18;;;;;;;5.70;2.70;;;11.00;99.90;;;11.93;100.00;97038.25;5030832;28;21008;-81
2023/10/24 09:35:49;;;;;;;6.60;2.67;;;11.00;99.90;;;11.93;100.00;97038.25;5031969;28;20492;-80
2023/10/24 09:38:42;;;;;;;13.67;2.87;;;11.10;99.90;;;11.92;100.00;97026.97;5031060;28;20457;-80
2023/10/24 09:41:14;;;;;;;6.00;2.30;;;11.10;99.90;;;11.95;100.00;97030.94;5030725;28;20557;-80
2023/10/24 09:43:49;;;;;;;5.70;2.60;;;11.10;99.90;;;11.99;100.00;97026.88;5031513;28;20459;-80
2023/10/24 09:46:24;;;;;;;8.97;2.97;;;11.20;99.90;;;12.01;100.00;97019.56;5029379;28;20458;-81
2023/10/24 09:48:56;;;;;;;3.67;2.50;;;11.20;99.90;;;12.04;100.00;97014.69;5028555;28;20567;-81
2023/10/24 09:51:25;;;;;;;9.00;2.40;;;11.20;99.90;;;12.05;100.00;97020.75;5030100;28;20466;-81
2023/10/24 09:53:56;;;;;;;7.53;2.83;;;11.30;99.90;;;12.07;100.00;97019.53;5033829;28;20470;-80
2023/10/24 09:56:27;;;;;;;7.60;2.33;;;11.30;99.90;;;12.10;100.00;97007.78;5030788;28;20458;-80
2023/10/24 09:58:58;;;;;;;5.00;2.23;;;11.30;99.90;;;12.11;100.00;96999.69;5030450;28;20458;-80
2023/10/24 10:01:29;;;;;;;5.63;4.47;;;11.30;99.90;;;12.15;100.00;96994.81;5028647;28;20530;-81
2023/10/24 10:04:04;;;;;;;3.87;3.30;;;11.30;99.90;;;12.18;100.00;96999.63;5032382;28;20462;-81
2023/10/24 10:06:36;;;;;;;3.70;2.73;;;11.40;99.90;;;12.20;100.00;96999.38;5030879;28;20564;-80
2023/10/24 10:09:26;;;;;;;7.67;3.17;;;11.20;99.90;;;12.19;100.00;96990.72;5031719;28;20551;-81
2023/10/24 10:12:01;;;;;;;6.63;2.97;;;11.30;99.90;;;12.21;100.00;96993.94;5030944;28;20491;-81
2023/10/24 10:14:45;;;;;;;6.30;4.03;;;11.40;99.90;;;12.23;100.00;96991.06;5032264;28;22124;-81
2023/10/24 10:17:26;;;;;;;3.43;2.60;;;11.40;99.90;;;12.24;100.00;96985.63;5032119;28;20512;-81
2023/10/24 10:20:28;;;;;;;3.30;2.83;;;11.40;99.90;;;12.24;100.00;96979.56;5034303;28;20477;-80
2023/10/24 10:23:26;;;;;;;5.03;2.80;;;11.50;99.90;;;12.28;100.00;96983.34;5028489;28;20648;-81
2023/10/24 10:26:24;;;;;;;7.07;3.53;;;11.50;99.90;;;12.30;100.00;96970.81;5029415;28;20549;-80
2023/10/24 10:29:19;;;;;;;11.87;3.20;;;11.50;99.90;;;12.32;100.00;96966.94;5029352;28;20891;-80
2023/10/24 10:32:10;;;;;;;4.67;3.23;;;11.50;99.90;;;12.34;100.00;96962.28;5029455;28;20484;-80